Time;durP1;ratioP1;P1;durP2;ratioP2;P2;SDS_P1;SDS_P2;PMS_P1;PMS_P2;Temp;Humidity;BMP_temperature;BMP_pressure;BME280_temperature;BME280_humidity;BME280_pressure;Samples;Min_cycle;Max_cycle;Signal;HPM_P1;HPM_P2
2023/03/18 00:00:32;;;;;;;15.73;11.48;;;;;;;;;;5152953;27;20034;-82
2023/03/18 00:02:59;;;;;;;18.50;12.00;;;;;;;;;;5153335;27;20493;-81
2023/03/18 00:05:25;;;;;;;19.83;12.25;;;;;;;;;;5150787;27;20050;-82
2023/03/18 00:07:51;;;;;;;21.48;12.48;;;;;;;;;;5165108;27;20049;-82
2023/03/18 00:10:17;;;;;;;19.13;13.10;;;;;;;;;;5152516;27;20082;-82
2023/03/18 00:12:44;;;;;;;18.58;12.75;;;;;;;;;;5149353;27;20410;-82
2023/03/18 00:15:11;;;;;;;21.67;13.73;;;;;;;;;;5155895;27;20038;-82
2023/03/18 00:17:39;;;;;;;27.27;13.95;;;;;;;;;;5156432;27;20042;-82
2023/03/18 00:20:06;;;;;;;22.98;13.50;;;;;;;;;;5139070;27;20497;-82
2023/03/18 00:22:36;;;;;;;22.80;13.68;;;;;;;;;;5156287;27;20042;-82
2023/03/18 00:25:03;;;;;;;23.13;14.45;;;;;;;;;;5152524;27;20386;-81
2023/03/18 00:27:30;;;;;;;24.65;14.57;;;;;;;;;;5128417;27;20367;-81
2023/03/18 00:29:57;;;;;;;23.98;14.73;;;;;;;;;;5155668;27;20129;-82
2023/03/18 00:32:25;;;;;;;27.13;15.48;;;;;;;;;;5156287;27;20117;-82
2023/03/18 00:34:52;;;;;;;24.25;15.52;;;;;;;;;;5138693;27;20086;-82
2023/03/18 00:37:29;;;;;;;21.70;14.40;;;;;;;;;;5174766;27;20082;-81
2023/03/18 00:39:56;;;;;;;23.25;15.20;;;;;;;;;;5156278;27;20551;-81
2023/03/18 00:42:22;;;;;;;21.20;14.48;;;;;;;;;;5121263;27;20558;-81
2023/03/18 00:44:49;;;;;;;25.67;15.20;;;;;;;;;;5147735;27;20562;-80
2023/03/18 00:47:15;;;;;;;21.08;14.20;;;;;;;;;;5156179;27;20049;-81
2023/03/18 00:49:41;;;;;;;26.92;15.98;;;;;;;;;;5145671;27;20534;-81
2023/03/18 00:52:07;;;;;;;25.55;15.20;;;;;;;;;;5137542;27;20038;-82
2023/03/18 00:54:34;;;;;;;24.75;15.57;;;;;;;;;;5156089;27;20042;-82
2023/03/18 00:57:00;;;;;;;26.30;15.60;;;;;;;;;;5155501;27;20046;-82
2023/03/18 00:59:26;;;;;;;26.13;15.05;;;;;;;;;;5138885;27;20054;-82
2023/03/18 01:01:52;;;;;;;26.45;16.27;;;;;;;;;;5138185;27;20049;-82
2023/03/18 01:04:20;;;;;;;24.83;15.32;;;;;;;;;;5121847;27;20501;-82
2023/03/18 01:06:46;;;;;;;25.13;16.20;;;;;;;;;;5155273;27;20046;-82
2023/03/18 01:09:13;;;;;;;23.73;15.85;;;;;;;;;;5138669;27;20508;-82
2023/03/18 01:11:39;;;;;;;27.27;16.25;;;;;;;;;;5140942;27;20034;-82
2023/03/18 01:14:05;;;;;;;24.85;16.27;;;;;;;;;;5145787;27;20119;-82
2023/03/18 01:16:31;;;;;;;28.25;17.05;;;;;;;;;;5150560;27;20042;-82
2023/03/18 01:18:57;;;;;;;26.73;16.70;;;;;;;;;;5139938;27;20034;-82
2023/03/18 01:21:24;;;;;;;26.55;16.98;;;;;;;;;;5159322;27;20038;-82
2023/03/18 01:23:50;;;;;;;26.80;17.90;;;;;;;;;;5159273;27;20045;-82
2023/03/18 01:26:17;;;;;;;25.55;17.40;;;;;;;;;;5147416;27;20901;-82
2023/03/18 01:28:43;;;;;;;29.55;17.75;;;;;;;;;;5157111;27;20030;-81
2023/03/18 01:31:11;;;;;;;27.58;17.50;;;;;;;;;;5159283;27;20510;-81
2023/03/18 01:33:37;;;;;;;26.25;16.67;;;;;;;;;;5159703;27;20494;-81
2023/03/18 01:36:04;;;;;;;23.83;17.23;;;;;;;;;;5133590;27;20042;-80
2023/03/18 01:38:30;;;;;;;27.48;17.55;;;;;;;;;;5153392;27;20039;-80
2023/03/18 01:40:57;;;;;;;29.30;18.05;;;;;;;;;;5124905;27;20387;-80
2023/03/18 01:43:26;;;;;;;26.63;18.05;;;;;;;;;;5129322;27;20443;-80
2023/03/18 01:45:57;;;;;;;33.58;18.65;;;;;;;;;;5137946;27;20049;-80
2023/03/18 01:48:24;;;;;;;27.13;18.48;;;;;;;;;;5133841;27;20107;-80
2023/03/18 01:50:54;;;;;;;29.80;19.25;;;;;;;;;;5140617;27;20064;-80
2023/03/18 01:53:20;;;;;;;31.17;18.95;;;;;;;;;;5138575;27;20035;-80
2023/03/18 01:55:47;;;;;;;30.02;18.95;;;;;;;;;;5138314;27;20125;-81
2023/03/18 01:58:23;;;;;;;34.05;18.60;;;;;;;;;;5147049;27;20420;-80
2023/03/18 02:00:56;;;;;;;31.15;19.35;;;;;;;;;;5154635;27;20041;-82
2023/03/18 02:03:23;;;;;;;32.47;18.92;;;;;;;;;;5158737;27;20121;-82
2023/03/18 02:05:49;;;;;;;31.30;19.40;;;;;;;;;;5158796;27;20121;-82
2023/03/18 02:08:16;;;;;;;30.55;19.38;;;;;;;;;;5143436;27;20078;-82
2023/03/18 02:10:44;;;;;;;29.23;18.95;;;;;;;;;;5158658;27;20114;-82
2023/03/18 02:13:11;;;;;;;32.55;20.10;;;;;;;;;;5141611;27;20061;-80
2023/03/18 02:15:39;;;;;;;33.13;20.10;;;;;;;;;;5158689;27;20038;-82
2023/03/18 02:18:14;;;;;;;31.30;19.80;;;;;;;;;;5158122;27;20053;-81
2023/03/18 02:20:43;;;;;;;34.67;20.33;;;;;;;;;;5143959;27;20030;-80
2023/03/18 02:23:14;;;;;;;33.67;20.35;;;;;;;;;;5146353;27;20042;-82
2023/03/18 02:25:58;;;;;;;32.50;20.08;;;;;;;;;;5137608;27;20038;-82
2023/03/18 02:28:26;;;;;;;30.90;19.92;;;;;;;;;;5137747;27;20043;-82
2023/03/18 02:30:54;;;;;;;35.55;20.67;;;;;;;;;;5138926;27;20034;-82
2023/03/18 02:33:21;;;;;;;32.55;20.67;;;;;;;;;;5138352;27;20043;-81
2023/03/18 02:35:51;;;;;;;32.95;20.85;;;;;;;;;;5132429;27;20529;-82
2023/03/18 02:38:17;;;;;;;34.70;22.13;;;;;;;;;;5139972;27;20098;-82
2023/03/18 02:40:43;;;;;;;31.55;21.35;;;;;;;;;;5176745;27;20038;-82
2023/03/18 02:43:29;;;;;;;36.70;22.58;;;;;;;;;;5157444;27;20061;-82
2023/03/18 02:46:11;;;;;;;36.63;20.73;;;;;;;;;;5143100;27;20043;-81
2023/03/18 02:48:38;;;;;;;37.95;22.15;;;;;;;;;;5140942;27;20482;-81
2023/03/18 02:51:06;;;;;;;38.85;22.80;;;;;;;;;;5135094;27;20498;-81
2023/03/18 02:53:32;;;;;;;35.85;21.55;;;;;;;;;;5132137;27;20034;-81
2023/03/18 02:55:59;;;;;;;38.40;22.77;;;;;;;;;;5122268;27;20513;-81
2023/03/18 02:58:25;;;;;;;41.40;22.42;;;;;;;;;;5130296;27;20050;-82
2023/03/18 03:00:51;;;;;;;38.50;21.88;;;;;;;;;;5131360;27;20097;-82
2023/03/18 03:03:17;;;;;;;37.45;22.58;;;;;;;;;;5126829;27;20042;-81
2023/03/18 03:05:43;;;;;;;37.45;23.02;;;;;;;;;;5157243;27;20042;-82
2023/03/18 03:08:10;;;;;;;38.53;22.20;;;;;;;;;;5135680;27;20047;-82
2023/03/18 03:10:36;;;;;;;40.60;22.70;;;;;;;;;;5122880;27;20490;-80
2023/03/18 03:13:03;;;;;;;37.60;22.08;;;;;;;;;;5136228;27;20083;-80
2023/03/18 03:15:29;;;;;;;35.45;21.70;;;;;;;;;;5136741;27;20432;-80
2023/03/18 03:17:55;;;;;;;38.70;22.85;;;;;;;;;;5119262;27;20039;-80
2023/03/18 03:20:22;;;;;;;40.88;23.45;;;;;;;;;;5119195;27;20038;-82
2023/03/18 03:22:49;;;;;;;38.92;22.50;;;;;;;;;;5136425;27;20034;-82
2023/03/18 03:25:15;;;;;;;37.58;22.98;;;;;;;;;;5118659;27;20039;-82
2023/03/18 03:27:42;;;;;;;38.63;22.98;;;;;;;;;;5136235;27;20106;-82
2023/03/18 03:30:11;;;;;;;40.45;22.95;;;;;;;;;;5136080;27;20035;-82
2023/03/18 03:32:38;;;;;;;41.70;23.23;;;;;;;;;;5135870;27;20121;-80
2023/03/18 03:35:06;;;;;;;43.42;23.15;;;;;;;;;;5136166;27;20091;-80
2023/03/18 03:37:33;;;;;;;38.78;22.33;;;;;;;;;;5136025;27;20122;-82
2023/03/18 03:39:59;;;;;;;40.55;23.67;;;;;;;;;;5136339;27;20095;-82
2023/03/18 03:42:25;;;;;;;42.15;23.85;;;;;;;;;;5138245;27;20054;-82
2023/03/18 03:44:51;;;;;;;41.97;24.75;;;;;;;;;;5156760;27;20046;-80
2023/03/18 03:47:17;;;;;;;42.63;24.13;;;;;;;;;;5154487;27;20086;-80
2023/03/18 03:49:44;;;;;;;43.58;24.48;;;;;;;;;;5163136;27;20574;-80
2023/03/18 03:52:10;;;;;;;39.17;24.23;;;;;;;;;;5122812;27;20047;-80
2023/03/18 03:54:37;;;;;;;40.22;23.73;;;;;;;;;;5156712;27;20041;-80
2023/03/18 03:57:03;;;;;;;43.58;24.35;;;;;;;;;;5123619;27;20043;-81
2023/03/18 03:59:29;;;;;;;43.60;24.15;;;;;;;;;;5149810;27;20039;-81
2023/03/18 04:01:55;;;;;;;39.85;24.10;;;;;;;;;;5138970;27;20043;-81
2023/03/18 04:04:22;;;;;;;41.53;23.65;;;;;;;;;;5149024;27;20099;-80
2023/03/18 04:06:49;;;;;;;36.30;22.92;;;;;;;;;;5149701;27;20079;-80
2023/03/18 04:09:16;;;;;;;39.85;24.48;;;;;;;;;;5131949;27;20508;-80
2023/03/18 04:11:43;;;;;;;40.30;23.45;;;;;;;;;;5120727;27;20043;-80
2023/03/18 04:14:09;;;;;;;37.95;22.50;;;;;;;;;;5140919;27;20047;-80
2023/03/18 04:16:36;;;;;;;39.17;22.58;;;;;;;;;;5135561;27;20042;-80
2023/03/18 04:19:02;;;;;;;37.08;21.83;;;;;;;;;;5152800;27;20038;-81
2023/03/18 04:21:29;;;;;;;37.90;21.73;;;;;;;;;;5152434;27;20587;-82
2023/03/18 04:23:56;;;;;;;37.78;22.40;;;;;;;;;;5153958;27;20034;-82
2023/03/18 04:26:22;;;;;;;37.03;22.60;;;;;;;;;;5152331;27;20051;-82
2023/03/18 04:28:48;;;;;;;35.35;21.27;;;;;;;;;;5152839;27;20442;-83
2023/03/18 04:31:14;;;;;;;37.78;22.90;;;;;;;;;;5141910;27;20027;-82
2023/03/18 04:33:40;;;;;;;36.47;22.65;;;;;;;;;;5135418;27;20525;-82
2023/03/18 04:36:08;;;;;;;38.63;23.67;;;;;;;;;;5135464;27;20474;-82
2023/03/18 04:38:34;;;;;;;36.78;23.67;;;;;;;;;;5152100;27;20105;-82
2023/03/18 04:41:00;;;;;;;41.53;24.30;;;;;;;;;;5152628;27;20043;-82
2023/03/18 04:43:26;;;;;;;37.45;23.65;;;;;;;;;;5152095;27;20049;-82
2023/03/18 04:45:52;;;;;;;36.17;23.55;;;;;;;;;;5146389;27;20076;-82
2023/03/18 04:48:18;;;;;;;38.33;24.00;;;;;;;;;;5143699;27;20122;-82
2023/03/18 04:50:45;;;;;;;38.60;24.92;;;;;;;;;;5131240;28;20050;-81
2023/03/18 04:53:11;;;;;;;41.88;25.23;;;;;;;;;;5142925;27;20039;-81
2023/03/18 04:55:37;;;;;;;39.83;25.35;;;;;;;;;;5156187;27;20043;-82
2023/03/18 04:58:03;;;;;;;38.33;25.30;;;;;;;;;;5156861;27;20042;-82
2023/03/18 05:00:30;;;;;;;37.75;25.05;;;;;;;;;;5152971;27;20394;-82
2023/03/18 05:02:56;;;;;;;44.45;25.85;;;;;;;;;;5116184;27;20123;-82
2023/03/18 05:05:22;;;;;;;39.90;24.33;;;;;;;;;;5145890;27;20087;-82
2023/03/18 05:07:49;;;;;;;37.67;24.90;;;;;;;;;;5155487;27;20459;-82
2023/03/18 05:10:15;;;;;;;38.95;23.85;;;;;;;;;;5132031;27;20034;-82
2023/03/18 05:12:42;;;;;;;40.15;24.48;;;;;;;;;;5159832;27;20389;-82
2023/03/18 05:15:08;;;;;;;39.35;23.95;;;;;;;;;;5159907;27;20416;-82
2023/03/18 05:17:34;;;;;;;42.08;25.08;;;;;;;;;;5159567;27;20401;-82
2023/03/18 05:20:00;;;;;;;35.90;24.45;;;;;;;;;;5136705;27;20070;-82
2023/03/18 05:22:26;;;;;;;40.80;24.80;;;;;;;;;;5151720;27;20034;-82
2023/03/18 05:24:52;;;;;;;36.97;24.73;;;;;;;;;;5124029;27;20091;-82
2023/03/18 05:27:19;;;;;;;38.22;25.13;;;;;;;;;;5149115;27;20505;-82
2023/03/18 05:29:45;;;;;;;40.88;25.77;;;;;;;;;;5141939;27;20034;-82
2023/03/18 05:32:13;;;;;;;38.72;24.95;;;;;;;;;;5151473;27;20060;-82
2023/03/18 05:34:40;;;;;;;39.72;25.50;;;;;;;;;;5136201;27;20466;-82
2023/03/18 05:37:07;;;;;;;37.92;25.70;;;;;;;;;;5142433;27;20550;-80
2023/03/18 05:39:34;;;;;;;46.70;27.17;;;;;;;;;;5158944;27;20094;-80
2023/03/18 05:42:01;;;;;;;46.33;26.88;;;;;;;;;;5159162;27;20038;-82
2023/03/18 05:44:28;;;;;;;38.55;26.40;;;;;;;;;;5166498;27;20106;-82
2023/03/18 05:46:54;;;;;;;43.15;25.55;;;;;;;;;;5156324;27;20426;-82
2023/03/18 05:49:22;;;;;;;39.92;26.90;;;;;;;;;;5177799;27;20394;-82
2023/03/18 05:51:48;;;;;;;42.97;27.17;;;;;;;;;;5141789;27;20046;-82
2023/03/18 05:54:17;;;;;;;41.15;26.98;;;;;;;;;;5137733;27;20038;-80
2023/03/18 05:56:47;;;;;;;48.75;27.88;;;;;;;;;;5148876;27;20121;-80
2023/03/18 05:59:14;;;;;;;44.85;28.80;;;;;;;;;;5144235;27;20057;-80
2023/03/18 06:01:40;;;;;;;38.83;24.77;;;;;;;;;;5145272;27;20391;-80
2023/03/18 06:04:07;;;;;;;39.67;25.95;;;;;;;;;;5138934;27;20087;-82
2023/03/18 06:06:39;;;;;;;40.88;26.05;;;;;;;;;;5157307;27;20082;-82
2023/03/18 06:09:05;;;;;;;44.38;28.30;;;;;;;;;;5158640;27;20061;-82
2023/03/18 06:11:32;;;;;;;42.85;28.02;;;;;;;;;;5170656;27;20551;-82
2023/03/18 06:13:58;;;;;;;43.13;27.90;;;;;;;;;;5133355;27;20447;-82
2023/03/18 06:16:25;;;;;;;43.17;28.95;;;;;;;;;;5162259;27;20042;-82
2023/03/18 06:18:51;;;;;;;46.88;30.27;;;;;;;;;;5147851;27;20065;-82
2023/03/18 06:21:17;;;;;;;46.55;28.58;;;;;;;;;;5140112;27;20051;-82
2023/03/18 06:23:43;;;;;;;46.28;29.73;;;;;;;;;;5143623;27;20058;-82
2023/03/18 06:26:10;;;;;;;45.40;29.80;;;;;;;;;;5149008;27;20085;-82
2023/03/18 06:28:36;;;;;;;48.47;29.75;;;;;;;;;;5152763;27;20046;-82
2023/03/18 06:31:02;;;;;;;45.33;28.70;;;;;;;;;;5176847;27;20034;-82
2023/03/18 06:33:29;;;;;;;45.20;29.08;;;;;;;;;;5158418;27;20038;-80
2023/03/18 06:35:56;;;;;;;45.83;29.60;;;;;;;;;;5152717;27;20038;-80
2023/03/18 06:38:22;;;;;;;50.03;29.77;;;;;;;;;;5149658;27;20049;-80
2023/03/18 06:40:48;;;;;;;44.67;28.73;;;;;;;;;;5133904;27;20487;-80
2023/03/18 06:43:14;;;;;;;42.88;29.45;;;;;;;;;;5137390;27;20045;-80
2023/03/18 06:45:41;;;;;;;47.35;28.95;;;;;;;;;;5138190;27;20046;-80
2023/03/18 06:48:09;;;;;;;46.60;28.17;;;;;;;;;;5150246;27;20064;-80
2023/03/18 06:50:35;;;;;;;40.92;27.10;;;;;;;;;;5151507;27;20149;-80
2023/03/18 06:53:02;;;;;;;44.13;27.92;;;;;;;;;;5134603;27;20066;-80
2023/03/18 06:55:28;;;;;;;43.70;27.55;;;;;;;;;;5120114;27;20047;-80
2023/03/18 06:57:55;;;;;;;42.00;26.67;;;;;;;;;;5119976;27;20034;-81
2023/03/18 07:00:21;;;;;;;37.03;26.02;;;;;;;;;;5130450;27;20094;-80
2023/03/18 07:02:48;;;;;;;40.95;26.98;;;;;;;;;;5140043;27;20038;-82
2023/03/18 07:05:15;;;;;;;39.00;25.88;;;;;;;;;;5150686;27;20084;-83
2023/03/18 07:07:42;;;;;;;38.53;26.23;;;;;;;;;;5157116;27;20038;-82
2023/03/18 07:10:15;;;;;;;48.10;27.17;;;;;;;;;;5157222;27;20050;-82
2023/03/18 07:12:41;;;;;;;37.47;26.38;;;;;;;;;;5157428;27;20069;-80
2023/03/18 07:15:08;;;;;;;40.20;27.27;;;;;;;;;;5157785;27;20070;-81
2023/03/18 07:17:35;;;;;;;42.35;26.63;;;;;;;;;;5128601;27;20404;-82
2023/03/18 07:20:04;;;;;;;44.97;28.48;;;;;;;;;;5137721;27;20047;-81
2023/03/18 07:22:30;;;;;;;42.47;27.73;;;;;;;;;;5146248;27;20506;-80
2023/03/18 07:24:56;;;;;;;45.80;29.33;;;;;;;;;;5148820;27;20047;-81
2023/03/18 07:27:22;;;;;;;44.83;28.88;;;;;;;;;;5136661;27;20046;-81
2023/03/18 07:29:49;;;;;;;41.05;27.63;;;;;;;;;;5142097;27;20042;-81
2023/03/18 07:32:15;;;;;;;44.13;29.55;;;;;;;;;;5127935;27;20039;-82
2023/03/18 07:34:41;;;;;;;45.63;30.98;;;;;;;;;;5116386;27;20039;-82
2023/03/18 07:37:08;;;;;;;48.63;31.20;;;;;;;;;;5136365;27;20039;-81
2023/03/18 07:39:34;;;;;;;52.65;33.40;;;;;;;;;;5138187;27;20034;-82
2023/03/18 07:42:00;;;;;;;48.92;32.45;;;;;;;;;;5139588;27;20059;-82
2023/03/18 07:44:27;;;;;;;50.55;32.72;;;;;;;;;;5139574;27;20049;-82
2023/03/18 07:46:53;;;;;;;57.58;34.58;;;;;;;;;;5156321;27;20030;-82
2023/03/18 07:49:19;;;;;;;52.10;33.97;;;;;;;;;;5156745;27;20045;-82
2023/03/18 07:51:46;;;;;;;60.60;37.58;;;;;;;;;;5152138;27;20327;-80
2023/03/18 07:54:13;;;;;;;56.88;34.72;;;;;;;;;;5119439;27;20061;-80
2023/03/18 07:56:39;;;;;;;55.72;35.63;;;;;;;;;;5138352;27;20483;-81
2023/03/18 07:59:05;;;;;;;54.50;37.85;;;;;;;;;;5148395;27;20038;-81
2023/03/18 08:01:31;;;;;;;57.40;36.15;;;;;;;;;;5136328;27;20054;-80
2023/03/18 08:03:58;;;;;;;62.03;37.33;;;;;;;;;;5156782;27;20054;-81
2023/03/18 08:06:25;;;;;;;59.90;38.28;;;;;;;;;;5150461;27;20089;-81
2023/03/18 08:08:51;;;;;;;58.45;38.22;;;;;;;;;;5135688;27;20046;-81
2023/03/18 08:11:17;;;;;;;62.85;39.25;;;;;;;;;;5129163;27;20038;-81
2023/03/18 08:13:43;;;;;;;61.67;38.58;;;;;;;;;;5142243;27;20047;-81
2023/03/18 08:16:10;;;;;;;65.45;40.55;;;;;;;;;;5133184;27;20047;-81
2023/03/18 08:18:37;;;;;;;61.72;40.45;;;;;;;;;;5092180;28;20171;-81
2023/03/18 08:21:03;;;;;;;66.63;40.10;;;;;;;;;;5130857;27;20043;-81
2023/03/18 08:23:29;;;;;;;66.40;41.13;;;;;;;;;;5124520;27;20049;-81
2023/03/18 08:25:55;;;;;;;62.88;38.75;;;;;;;;;;5162239;27;20045;-81
2023/03/18 08:28:22;;;;;;;65.07;41.35;;;;;;;;;;5139337;27;20032;-80
2023/03/18 08:30:52;;;;;;;64.75;42.00;;;;;;;;;;5156018;27;20038;-83
2023/03/18 08:33:18;;;;;;;65.78;41.08;;;;;;;;;;5156416;27;20500;-83
2023/03/18 08:35:45;;;;;;;67.05;41.22;;;;;;;;;;5138654;27;20042;-81
2023/03/18 08:38:11;;;;;;;67.45;40.85;;;;;;;;;;5139145;27;20038;-81
2023/03/18 08:40:40;;;;;;;61.97;40.20;;;;;;;;;;5155037;27;20121;-81
2023/03/18 08:43:06;;;;;;;54.97;35.70;;;;;;;;;;5135479;27;20043;-81
2023/03/18 08:45:32;;;;;;;52.83;35.60;;;;;;;;;;5135512;27;20039;-81
2023/03/18 08:47:59;;;;;;;47.47;32.72;;;;;;;;;;5118167;27;20064;-81
2023/03/18 08:50:27;;;;;;;45.70;31.45;;;;;;;;;;5147950;27;20103;-81
2023/03/18 08:52:55;;;;;;;40.08;29.17;;;;;;;;;;5142561;27;20046;-81
2023/03/18 08:55:22;;;;;;;40.05;28.02;;;;;;;;;;5131925;27;20043;-81
2023/03/18 08:57:49;;;;;;;42.03;29.27;;;;;;;;;;5135520;27;20172;-81
2023/03/18 09:00:15;;;;;;;46.97;31.25;;;;;;;;;;5150447;27;20045;-81
2023/03/18 09:02:41;;;;;;;55.83;34.55;;;;;;;;;;5136090;27;20039;-81
2023/03/18 09:05:07;;;;;;;63.95;38.10;;;;;;;;;;5128102;27;20043;-84
2023/03/18 09:07:34;;;;;;;63.67;37.50;;;;;;;;;;5132570;27;20039;-82
2023/03/18 09:10:00;;;;;;;52.45;31.63;;;;;;;;;;5135949;27;20055;-82
2023/03/18 09:12:26;;;;;;;47.60;29.65;;;;;;;;;;5146515;27;20417;-84
2023/03/18 09:14:52;;;;;;;46.92;29.45;;;;;;;;;;5135406;27;21704;-83
2023/03/18 09:17:18;;;;;;;40.65;27.88;;;;;;;;;;5127393;27;20117;-84
2023/03/18 09:19:44;;;;;;;39.47;26.95;;;;;;;;;;5140975;27;20051;-82
2023/03/18 09:22:10;;;;;;;39.03;26.98;;;;;;;;;;5098291;28;20039;-82
2023/03/18 09:24:36;;;;;;;35.63;24.50;;;;;;;;;;5141887;27;20042;-83
2023/03/18 09:27:03;;;;;;;34.47;25.60;;;;;;;;;;5155263;27;20037;-83
2023/03/18 09:29:29;;;;;;;39.50;26.20;;;;;;;;;;5156333;27;20421;-83
2023/03/18 09:31:55;;;;;;;34.50;25.45;;;;;;;;;;5152523;27;20046;-82
2023/03/18 09:34:21;;;;;;;36.28;24.23;;;;;;;;;;5135113;27;20035;-83
2023/03/18 09:36:49;;;;;;;31.40;22.77;;;;;;;;;;5118888;27;20038;-82
2023/03/18 09:39:19;;;;;;;28.13;20.08;;;;;;;;;;5111073;27;20411;-83
2023/03/18 09:41:45;;;;;;;28.73;20.40;;;;;;;;;;5146186;27;20103;-83
2023/03/18 09:44:24;;;;;;;24.23;18.80;;;;;;;;;;5141718;27;20050;-84
2023/03/18 09:46:53;;;;;;;23.38;17.98;;;;;;;;;;5159331;27;20375;-84
2023/03/18 09:49:30;;;;;;;24.35;17.55;;;;;;;;;;5131002;27;20049;-83
2023/03/18 09:52:05;;;;;;;22.55;15.98;;;;;;;;;;5159165;27;20410;-82
2023/03/18 09:54:32;;;;;;;;;;;;;;;;;;5133594;27;20398;-82
2023/03/18 09:56:58;;;;;;;19.75;14.55;;;;;;;;;;5145067;27;19984;-82
2023/03/18 09:59:29;;;;;;;20.15;14.60;;;;;;;;;;5143880;27;20042;-81
2023/03/18 10:01:56;;;;;;;18.02;14.73;;;;;;;;;;5155565;27;20049;-82
2023/03/18 10:04:27;;;;;;;18.88;14.82;;;;;;;;;;5158720;27;20114;-81
2023/03/18 10:06:59;;;;;;;17.98;13.95;;;;;;;;;;5149119;27;20407;-80
2023/03/18 10:09:30;;;;;;;18.15;14.43;;;;;;;;;;5137244;27;20112;-81
2023/03/18 10:12:00;;;;;;;19.10;14.20;;;;;;;;;;5147172;27;20042;-81
2023/03/18 10:14:26;;;;;;;22.33;13.93;;;;;;;;;;5143971;27;20122;-81
2023/03/18 10:16:57;;;;;;;16.77;13.82;;;;;;;;;;5158988;27;20034;-82
2023/03/18 10:19:23;;;;;;;16.30;13.45;;;;;;;;;;5158494;27;20034;-83
2023/03/18 10:21:49;;;;;;;16.40;11.50;;;;;;;;;;5177380;27;20549;-83
2023/03/18 10:24:28;;;;;;;17.20;11.45;;;;;;;;;;5158332;27;20113;-82
2023/03/18 10:27:03;;;;;;;17.52;12.00;;;;;;;;;;5142439;27;20099;-82
2023/03/18 10:29:29;;;;;;;;;;;;;;;;;;5136188;27;20034;-82
2023/03/18 10:31:55;;;;;;;;;;;;;;;;;;5126359;27;20048;-82
2023/03/18 10:34:21;;;;;;;;;;;;;;;;;;5152935;27;19921;-82
2023/03/18 10:36:48;;;;;;;17.52;14.40;;;;;;;;;;5152204;27;19922;-82
2023/03/18 10:39:22;;;;;;;16.48;13.73;;;;;;;;;;5136957;27;20042;-82
2023/03/18 10:41:49;;;;;;;18.00;12.82;;;;;;;;;;5125177;27;20046;-82
2023/03/18 10:44:22;;;;;;;14.57;11.48;;;;;;;;;;5110932;27;20045;-83
2023/03/18 10:46:52;;;;;;;15.70;10.15;;;;;;;;;;5157933;27;20125;-82
2023/03/18 10:49:25;;;;;;;13.02;9.48;;;;;;;;;;5161870;27;20505;-82
2023/03/18 10:51:57;;;;;;;10.95;8.68;;;;;;;;;;5145697;27;20049;-83
2023/03/18 10:54:28;;;;;;;10.13;8.23;;;;;;;;;;5138320;27;20479;-83
2023/03/18 10:56:54;;;;;;;10.13;8.40;;;;;;;;;;5144006;27;20149;-82
2023/03/18 10:59:21;;;;;;;11.82;8.82;;;;;;;;;;5141244;27;20066;-82
2023/03/18 11:01:50;;;;;;;9.45;8.43;;;;;;;;;;5167895;27;20038;-82
2023/03/18 11:04:22;;;;;;;11.77;8.05;;;;;;;;;;5157077;27;20041;-82
2023/03/18 11:06:49;;;;;;;9.73;8.23;;;;;;;;;;5176361;27;20095;-82
2023/03/18 11:09:17;;;;;;;9.65;7.78;;;;;;;;;;5153613;27;20418;-82
2023/03/18 11:11:44;;;;;;;8.82;7.43;;;;;;;;;;5154111;27;20042;-82
2023/03/18 11:14:16;;;;;;;8.45;6.90;;;;;;;;;;5139494;27;20149;-82
2023/03/18 11:16:55;;;;;;;8.18;5.80;;;;;;;;;;5126457;27;20039;-81
2023/03/18 11:19:38;;;;;;;9.23;6.72;;;;;;;;;;5153383;27;20042;-83
2023/03/18 11:22:08;;;;;;;8.93;7.20;;;;;;;;;;5154157;27;20509;-81
2023/03/18 11:24:41;;;;;;;8.52;7.10;;;;;;;;;;5152616;27;20054;-84
2023/03/18 11:27:14;;;;;;;8.30;6.70;;;;;;;;;;5133347;27;20039;-84
2023/03/18 11:29:46;;;;;;;8.60;6.68;;;;;;;;;;5144873;27;20049;-84
2023/03/18 11:32:26;;;;;;;6.80;5.90;;;;;;;;;;5126816;27;20515;-84
2023/03/18 11:35:01;;;;;;;7.22;6.05;;;;;;;;;;5147768;27;20054;-84
2023/03/18 11:37:31;;;;;;;6.00;5.13;;;;;;;;;;5132983;27;20046;-84
2023/03/18 11:40:13;;;;;;;6.97;5.63;;;;;;;;;;5133061;27;20039;-82
2023/03/18 11:42:40;;;;;;;7.70;6.30;;;;;;;;;;5145278;27;20045;-82
2023/03/18 11:45:22;;;;;;;8.15;6.82;;;;;;;;;;5152747;27;20038;-82
2023/03/18 11:47:48;;;;;;;8.45;6.80;;;;;;;;;;5101642;27;20083;-83
2023/03/18 11:50:26;;;;;;;8.05;5.80;;;;;;;;;;5142399;27;20063;-82
2023/03/18 11:52:59;;;;;;;7.22;5.68;;;;;;;;;;5153131;27;20123;-82
2023/03/18 11:55:44;;;;;;;6.85;6.03;;;;;;;;;;5152860;27;20179;-82
2023/03/18 11:58:24;;;;;;;7.13;6.32;;;;;;;;;;5152702;27;20077;-81
2023/03/18 12:01:12;;;;;;;8.88;6.20;;;;;;;;;;5146874;27;20483;-82
2023/03/18 12:03:44;;;;;;;7.53;5.90;;;;;;;;;;5120220;27;20122;-82
2023/03/18 12:06:11;;;;;;;8.48;5.72;;;;;;;;;;5133405;27;20042;-81
2023/03/18 12:08:56;;;;;;;6.97;6.00;;;;;;;;;;5152879;27;20050;-82
2023/03/18 12:11:29;;;;;;;7.23;5.00;;;;;;;;;;5135191;27;20064;-81
2023/03/18 12:14:05;;;;;;;8.27;6.10;;;;;;;;;;5152829;27;20272;-81
2023/03/18 12:17:04;;;;;;;8.60;6.20;;;;;;;;;;5147842;27;20146;-83
2023/03/18 12:19:30;;;;;;;7.32;5.57;;;;;;;;;;5082402;27;20499;-83
2023/03/18 12:22:11;;;;;;;6.95;5.68;;;;;;;;;;5132496;27;20050;-83
2023/03/18 12:24:44;;;;;;;7.07;6.05;;;;;;;;;;5147022;27;20043;-83
2023/03/18 12:27:28;;;;;;;6.68;5.40;;;;;;;;;;5141544;27;20043;-81
2023/03/18 12:30:02;;;;;;;7.93;5.35;;;;;;;;;;5149423;27;20039;-83
2023/03/18 12:32:45;;;;;;;8.48;5.60;;;;;;;;;;5122112;28;20036;-83
2023/03/18 12:35:11;;;;;;;7.05;5.55;;;;;;;;;;5135982;27;20035;-81
2023/03/18 12:37:41;;;;;;;7.60;5.72;;;;;;;;;;5142701;27;20075;-81
2023/03/18 12:40:28;;;;;;;9.43;5.85;;;;;;;;;;5135419;27;20372;-82
2023/03/18 12:43:06;;;;;;;9.40;6.47;;;;;;;;;;5135489;27;20046;-80
2023/03/18 12:45:38;;;;;;;9.75;6.28;;;;;;;;;;5135482;27;20035;-83
2023/03/18 12:48:09;;;;;;;10.15;6.00;;;;;;;;;;5140137;27;20433;-83
2023/03/18 12:50:36;;;;;;;9.23;5.90;;;;;;;;;;5135197;27;20414;-81
2023/03/18 12:53:19;;;;;;;8.73;6.15;;;;;;;;;;5135669;27;20494;-81
2023/03/18 12:55:46;;;;;;;9.10;6.82;;;;;;;;;;5127556;27;20038;-80
2023/03/18 12:58:24;;;;;;;9.48;7.38;;;;;;;;;;5152331;27;20047;-81
2023/03/18 13:01:08;;;;;;;13.70;10.30;;;;;;;;;;5152835;27;20047;-81
2023/03/18 13:03:34;;;;;;;11.95;9.07;;;;;;;;;;5137595;27;20043;-80
2023/03/18 13:06:00;;;;;;;14.55;10.50;;;;;;;;;;5151960;27;20071;-80
2023/03/18 13:08:34;;;;;;;14.15;10.60;;;;;;;;;;5141953;27;20054;-82
2023/03/18 13:11:19;;;;;;;14.63;10.07;;;;;;;;;;5115074;28;20088;-83
2023/03/18 13:13:49;;;;;;;15.63;10.13;;;;;;;;;;5133892;27;20070;-82
2023/03/18 13:16:16;;;;;;;14.18;9.27;;;;;;;;;;5139588;27;20047;-83
2023/03/18 13:18:44;;;;;;;12.57;7.93;;;;;;;;;;5118691;27;20112;-82
2023/03/18 13:21:15;;;;;;;13.20;7.53;;;;;;;;;;5118832;27;20052;-82
2023/03/18 13:23:44;;;;;;;9.60;6.82;;;;;;;;;;5111882;27;20382;-81
2023/03/18 13:26:22;;;;;;;9.77;6.75;;;;;;;;;;5157078;27;20443;-81
2023/03/18 13:28:55;;;;;;;10.65;6.25;;;;;;;;;;5156259;27;20486;-82
2023/03/18 13:31:27;;;;;;;8.40;6.30;;;;;;;;;;5135652;27;20039;-82
2023/03/18 13:34:03;;;;;;;11.15;5.70;;;;;;;;;;5132813;27;20189;-83
2023/03/18 13:36:44;;;;;;;9.32;5.90;;;;;;;;;;5143410;27;20495;-82
2023/03/18 13:39:21;;;;;;;7.65;5.20;;;;;;;;;;5141369;27;20061;-80
2023/03/18 13:41:47;;;;;;;9.23;5.53;;;;;;;;;;5148055;27;20043;-82
2023/03/18 13:44:18;;;;;;;7.30;5.47;;;;;;;;;;5149932;27;20065;-83
2023/03/18 13:46:52;;;;;;;8.85;5.93;;;;;;;;;;5142963;27;20094;-82
2023/03/18 13:49:20;;;;;;;11.50;6.63;;;;;;;;;;5123725;27;20099;-81
2023/03/18 13:51:51;;;;;;;9.30;6.07;;;;;;;;;;5155237;27;20086;-80
2023/03/18 13:54:19;;;;;;;10.18;6.32;;;;;;;;;;5155808;27;20046;-83
2023/03/18 13:56:54;;;;;;;9.32;6.20;;;;;;;;;;5149537;27;20045;-83
2023/03/18 13:59:33;;;;;;;12.05;7.57;;;;;;;;;;5136342;27;20039;-83
2023/03/18 14:02:19;;;;;;;13.18;7.88;;;;;;;;;;5125483;27;20034;-83
2023/03/18 14:04:47;;;;;;;13.77;8.80;;;;;;;;;;5149045;27;20176;-83
2023/03/18 14:07:16;;;;;;;12.73;8.68;;;;;;;;;;5144059;27;20560;-83
2023/03/18 14:09:51;;;;;;;14.50;9.75;;;;;;;;;;5132296;27;20055;-83
2023/03/18 14:12:17;;;;;;;13.63;9.52;;;;;;;;;;5129159;27;20394;-83
2023/03/18 14:14:50;;;;;;;11.63;8.80;;;;;;;;;;5155433;27;20083;-83
2023/03/18 14:17:37;;;;;;;15.10;9.23;;;;;;;;;;5141925;27;20099;-83
2023/03/18 14:20:18;;;;;;;11.38;8.98;;;;;;;;;;5133717;27;20058;-81
2023/03/18 14:22:45;;;;;;;11.02;8.82;;;;;;;;;;5154823;27;20380;-81
2023/03/18 14:25:20;;;;;;;15.88;9.73;;;;;;;;;;5146765;27;20487;-83
2023/03/18 14:27:50;;;;;;;13.30;9.48;;;;;;;;;;5151515;27;20046;-83
2023/03/18 14:30:32;;;;;;;11.93;8.85;;;;;;;;;;5155062;27;20128;-83
2023/03/18 14:33:00;;;;;;;12.55;9.07;;;;;;;;;;5155034;27;20043;-80